sensor_id;sensor_type;location;lat;lon;timestamp;temperature;humidity
51661;DHT22;37741;49.748;8.490;2023-06-04T00:01:09;21.80;38.70
51661;DHT22;37741;49.748;8.490;2023-06-04T00:03:35;21.80;38.70
51661;DHT22;37741;49.748;8.490;2023-06-04T00:06:00;21.70;38.70
51661;DHT22;37741;49.748;8.490;2023-06-04T00:08:26;21.70;38.70
51661;DHT22;37741;49.748;8.490;2023-06-04T00:10:52;21.70;38.90
51661;DHT22;37741;49.748;8.490;2023-06-04T00:13:17;21.60;38.90
51661;DHT22;37741;49.748;8.490;2023-06-04T00:15:43;21.50;39.10
51661;DHT22;37741;49.748;8.490;2023-06-04T00:18:08;21.50;39.00
51661;DHT22;37741;49.748;8.490;2023-06-04T00:20:36;21.50;39.20
51661;DHT22;37741;49.748;8.490;2023-06-04T00:23:02;21.40;39.10
51661;DHT22;37741;49.748;8.490;2023-06-04T00:25:27;21.40;39.40
51661;DHT22;37741;49.748;8.490;2023-06-04T00:27:53;21.40;39.50
51661;DHT22;37741;49.748;8.490;2023-06-04T00:30:19;21.30;39.50
51661;DHT22;37741;49.748;8.490;2023-06-04T00:32:44;21.30;39.50
51661;DHT22;37741;49.748;8.490;2023-06-04T00:35:12;21.20;39.70
51661;DHT22;37741;49.748;8.490;2023-06-04T00:37:38;21.20;39.70
51661;DHT22;37741;49.748;8.490;2023-06-04T00:40:04;21.10;39.60
51661;DHT22;37741;49.748;8.490;2023-06-04T00:42:31;21.10;39.50
51661;DHT22;37741;49.748;8.490;2023-06-04T00:44:57;21.10;39.80
51661;DHT22;37741;49.748;8.490;2023-06-04T00:47:23;21.00;39.90
51661;DHT22;37741;49.748;8.490;2023-06-04T00:49:49;21.00;40.00
51661;DHT22;37741;49.748;8.490;2023-06-04T00:52:16;21.00;40.00
51661;DHT22;37741;49.748;8.490;2023-06-04T00:54:42;21.00;40.00
51661;DHT22;37741;49.748;8.490;2023-06-04T00:57:08;20.90;40.10
51661;DHT22;37741;49.748;8.490;2023-06-04T00:59:37;20.90;39.90
51661;DHT22;37741;49.748;8.490;2023-06-04T01:02:11;20.90;39.60
51661;DHT22;37741;49.748;8.490;2023-06-04T01:07:18;20.80;40.10
51661;DHT22;37741;49.748;8.490;2023-06-04T01:09:45;20.80;40.00
51661;DHT22;37741;49.748;8.490;2023-06-04T01:12:11;20.80;40.40
51661;DHT22;37741;49.748;8.490;2023-06-04T01:14:37;20.80;40.30
51661;DHT22;37741;49.748;8.490;2023-06-04T01:22:19;20.60;40.30
51661;DHT22;37741;49.748;8.490;2023-06-04T01:24:53;20.60;40.20
51661;DHT22;37741;49.748;8.490;2023-06-04T01:27:22;20.50;40.40
51661;DHT22;37741;49.748;8.490;2023-06-04T01:29:48;20.50;40.40
51661;DHT22;37741;49.748;8.490;2023-06-04T01:32:16;20.40;40.30
51661;DHT22;37741;49.748;8.490;2023-06-04T01:34:46;20.40;40.40
51661;DHT22;37741;49.748;8.490;2023-06-04T01:37:12;20.40;40.30
51661;DHT22;37741;49.748;8.490;2023-06-04T01:39:38;20.40;40.40
51661;DHT22;37741;49.748;8.490;2023-06-04T01:42:04;20.30;40.30
51661;DHT22;37741;49.748;8.490;2023-06-04T01:44:30;20.30;40.40
51661;DHT22;37741;49.748;8.490;2023-06-04T01:46:55;20.30;40.40
51661;DHT22;37741;49.748;8.490;2023-06-04T01:49:21;20.20;40.30
51661;DHT22;37741;49.748;8.490;2023-06-04T01:51:46;20.20;40.50
51661;DHT22;37741;49.748;8.490;2023-06-04T01:54:12;20.10;40.50
51661;DHT22;37741;49.748;8.490;2023-06-04T01:56:38;20.10;40.50
51661;DHT22;37741;49.748;8.490;2023-06-04T01:59:04;20.10;40.40
51661;DHT22;37741;49.748;8.490;2023-06-04T02:01:29;20.00;40.40
51661;DHT22;37741;49.748;8.490;2023-06-04T02:03:55;20.00;40.50
51661;DHT22;37741;49.748;8.490;2023-06-04T02:06:21;19.90;40.50
51661;DHT22;37741;49.748;8.490;2023-06-04T02:08:46;19.90;40.60
51661;DHT22;37741;49.748;8.490;2023-06-04T02:11:12;19.90;40.70
51661;DHT22;37741;49.748;8.490;2023-06-04T02:13:37;19.80;40.80
51661;DHT22;37741;49.748;8.490;2023-06-04T02:16:03;19.80;40.80
51661;DHT22;37741;49.748;8.490;2023-06-04T02:18:29;19.70;40.90
51661;DHT22;37741;49.748;8.490;2023-06-04T02:20:56;19.70;41.00
51661;DHT22;37741;49.748;8.490;2023-06-04T02:23:21;19.60;41.00
51661;DHT22;37741;49.748;8.490;2023-06-04T02:25:47;19.50;41.10
51661;DHT22;37741;49.748;8.490;2023-06-04T02:28:14;19.50;41.20
51661;DHT22;37741;49.748;8.490;2023-06-04T02:30:41;19.40;41.10
51661;DHT22;37741;49.748;8.490;2023-06-04T02:33:07;19.40;41.30
51661;DHT22;37741;49.748;8.490;2023-06-04T02:35:35;19.40;41.30
51661;DHT22;37741;49.748;8.490;2023-06-04T02:38:01;19.30;41.40
51661;DHT22;37741;49.748;8.490;2023-06-04T02:40:27;19.30;41.50
51661;DHT22;37741;49.748;8.490;2023-06-04T02:42:53;19.20;41.40
51661;DHT22;37741;49.748;8.490;2023-06-04T02:45:19;19.20;41.60
51661;DHT22;37741;49.748;8.490;2023-06-04T02:47:44;19.10;41.60
51661;DHT22;37741;49.748;8.490;2023-06-04T02:50:11;19.10;41.80
51661;DHT22;37741;49.748;8.490;2023-06-04T02:52:37;19.10;41.90
51661;DHT22;37741;49.748;8.490;2023-06-04T02:55:06;19.00;41.70
51661;DHT22;37741;49.748;8.490;2023-06-04T02:57:33;19.00;42.00
51661;DHT22;37741;49.748;8.490;2023-06-04T02:59:59;18.90;42.00
51661;DHT22;37741;49.748;8.490;2023-06-04T03:02:25;18.90;42.00
51661;DHT22;37741;49.748;8.490;2023-06-04T03:04:52;18.80;42.10
51661;DHT22;37741;49.748;8.490;2023-06-04T03:07:20;18.80;42.10
51661;DHT22;37741;49.748;8.490;2023-06-04T03:09:48;18.80;42.20
51661;DHT22;37741;49.748;8.490;2023-06-04T03:12:14;18.70;42.20
51661;DHT22;37741;49.748;8.490;2023-06-04T03:14:40;18.70;42.30
51661;DHT22;37741;49.748;8.490;2023-06-04T03:17:05;18.70;42.40
51661;DHT22;37741;49.748;8.490;2023-06-04T03:19:40;18.60;42.40
51661;DHT22;37741;49.748;8.490;2023-06-04T03:22:07;18.60;42.30
51661;DHT22;37741;49.748;8.490;2023-06-04T03:24:38;18.60;42.40
51661;DHT22;37741;49.748;8.490;2023-06-04T03:27:05;18.50;42.50
51661;DHT22;37741;49.748;8.490;2023-06-04T03:29:31;18.50;42.70
51661;DHT22;37741;49.748;8.490;2023-06-04T03:31:58;18.40;42.70
51661;DHT22;37741;49.748;8.490;2023-06-04T03:34:23;18.40;42.80
51661;DHT22;37741;49.748;8.490;2023-06-04T03:36:54;18.30;42.70
51661;DHT22;37741;49.748;8.490;2023-06-04T03:39:21;18.40;42.80
51661;DHT22;37741;49.748;8.490;2023-06-04T03:41:47;18.30;42.80
51661;DHT22;37741;49.748;8.490;2023-06-04T03:44:14;18.30;42.90
51661;DHT22;37741;49.748;8.490;2023-06-04T03:46:43;18.20;42.90
51661;DHT22;37741;49.748;8.490;2023-06-04T03:49:10;18.20;43.00
51661;DHT22;37741;49.748;8.490;2023-06-04T03:51:37;18.20;43.00
51661;DHT22;37741;49.748;8.490;2023-06-04T03:54:02;18.20;43.00
51661;DHT22;37741;49.748;8.490;2023-06-04T03:56:28;18.10;43.00
51661;DHT22;37741;49.748;8.490;2023-06-04T03:58:54;18.10;43.10
51661;DHT22;37741;49.748;8.490;2023-06-04T04:01:21;18.10;43.10
51661;DHT22;37741;49.748;8.490;2023-06-04T04:03:49;18.10;43.20
51661;DHT22;37741;49.748;8.490;2023-06-04T04:06:15;18.00;43.20
51661;DHT22;37741;49.748;8.490;2023-06-04T04:08:41;18.00;43.20
51661;DHT22;37741;49.748;8.490;2023-06-04T04:11:15;18.00;43.20
51661;DHT22;37741;49.748;8.490;2023-06-04T04:13:41;18.00;43.30
51661;DHT22;37741;49.748;8.490;2023-06-04T04:16:06;17.90;43.30
51661;DHT22;37741;49.748;8.490;2023-06-04T04:18:36;17.90;43.40
51661;DHT22;37741;49.748;8.490;2023-06-04T04:21:03;17.90;43.50
51661;DHT22;37741;49.748;8.490;2023-06-04T04:23:29;17.80;43.50
51661;DHT22;37741;49.748;8.490;2023-06-04T04:25:55;17.80;43.50
51661;DHT22;37741;49.748;8.490;2023-06-04T04:28:24;17.80;43.50
51661;DHT22;37741;49.748;8.490;2023-06-04T04:30:54;17.70;43.60
51661;DHT22;37741;49.748;8.490;2023-06-04T04:33:22;17.70;43.60
51661;DHT22;37741;49.748;8.490;2023-06-04T04:35:50;17.70;43.70
51661;DHT22;37741;49.748;8.490;2023-06-04T04:38:15;17.70;43.60
51661;DHT22;37741;49.748;8.490;2023-06-04T04:40:42;17.70;43.70
51661;DHT22;37741;49.748;8.490;2023-06-04T04:43:08;17.70;43.70
51661;DHT22;37741;49.748;8.490;2023-06-04T04:45:34;17.70;44.30
51661;DHT22;37741;49.748;8.490;2023-06-04T04:47:59;17.70;43.70
51661;DHT22;37741;49.748;8.490;2023-06-04T04:50:25;17.70;43.70
51661;DHT22;37741;49.748;8.490;2023-06-04T04:52:51;17.70;43.70
51661;DHT22;37741;49.748;8.490;2023-06-04T04:55:16;17.70;43.70
51661;DHT22;37741;49.748;8.490;2023-06-04T04:57:42;17.70;43.70
51661;DHT22;37741;49.748;8.490;2023-06-04T05:00:08;17.70;43.70
51661;DHT22;37741;49.748;8.490;2023-06-04T05:02:35;17.70;43.70
51661;DHT22;37741;49.748;8.490;2023-06-04T05:05:01;17.70;43.70
51661;DHT22;37741;49.748;8.490;2023-06-04T05:07:30;17.70;43.80
51661;DHT22;37741;49.748;8.490;2023-06-04T05:09:55;17.70;43.80
51661;DHT22;37741;49.748;8.490;2023-06-04T05:12:24;17.70;43.80
51661;DHT22;37741;49.748;8.490;2023-06-04T05:14:50;17.70;43.90
51661;DHT22;37741;49.748;8.490;2023-06-04T05:17:16;17.70;43.90
51661;DHT22;37741;49.748;8.490;2023-06-04T05:19:57;17.70;43.90
51661;DHT22;37741;49.748;8.490;2023-06-04T05:22:29;17.70;44.00
51661;DHT22;37741;49.748;8.490;2023-06-04T05:24:57;17.70;43.90
51661;DHT22;37741;49.748;8.490;2023-06-04T05:27:25;17.70;44.00
51661;DHT22;37741;49.748;8.490;2023-06-04T05:29:51;17.70;44.10
51661;DHT22;37741;49.748;8.490;2023-06-04T05:32:16;17.70;44.10
51661;DHT22;37741;49.748;8.490;2023-06-04T05:34:43;17.70;44.20
51661;DHT22;37741;49.748;8.490;2023-06-04T05:37:09;17.70;44.20
51661;DHT22;37741;49.748;8.490;2023-06-04T05:39:34;17.70;44.20
51661;DHT22;37741;49.748;8.490;2023-06-04T05:42:03;17.70;44.30
51661;DHT22;37741;49.748;8.490;2023-06-04T05:44:29;17.80;44.50
51661;DHT22;37741;49.748;8.490;2023-06-04T05:46:55;17.70;44.60
51661;DHT22;37741;49.748;8.490;2023-06-04T05:49:20;17.80;44.50
51661;DHT22;37741;49.748;8.490;2023-06-04T05:51:49;17.80;44.60
51661;DHT22;37741;49.748;8.490;2023-06-04T05:54:15;17.80;44.60
51661;DHT22;37741;49.748;8.490;2023-06-04T05:56:40;17.80;44.50
51661;DHT22;37741;49.748;8.490;2023-06-04T05:59:06;17.80;44.60
51661;DHT22;37741;49.748;8.490;2023-06-04T06:01:32;17.80;44.70
51661;DHT22;37741;49.748;8.490;2023-06-04T06:03:57;17.80;44.80
51661;DHT22;37741;49.748;8.490;2023-06-04T06:06:23;17.80;44.80
51661;DHT22;37741;49.748;8.490;2023-06-04T06:08:48;17.80;44.80
51661;DHT22;37741;49.748;8.490;2023-06-04T06:11:15;17.80;45.00
51661;DHT22;37741;49.748;8.490;2023-06-04T06:13:41;17.80;45.00
51661;DHT22;37741;49.748;8.490;2023-06-04T06:16:06;17.80;45.10
51661;DHT22;37741;49.748;8.490;2023-06-04T06:18:32;17.70;45.00
51661;DHT22;37741;49.748;8.490;2023-06-04T06:20:58;17.70;45.20
51661;DHT22;37741;49.748;8.490;2023-06-04T06:23:24;17.70;45.40
51661;DHT22;37741;49.748;8.490;2023-06-04T06:25:49;17.70;45.40
51661;DHT22;37741;49.748;8.490;2023-06-04T06:28:17;17.70;45.50
51661;DHT22;37741;49.748;8.490;2023-06-04T06:30:43;17.70;45.50
51661;DHT22;37741;49.748;8.490;2023-06-04T06:33:10;17.80;45.50
51661;DHT22;37741;49.748;8.490;2023-06-04T06:35:35;17.80;45.60
51661;DHT22;37741;49.748;8.490;2023-06-04T06:38:01;17.80;45.40
51661;DHT22;37741;49.748;8.490;2023-06-04T06:40:27;17.90;45.40
51661;DHT22;37741;49.748;8.490;2023-06-04T06:42:52;17.90;45.40
51661;DHT22;37741;49.748;8.490;2023-06-04T06:45:19;18.00;45.40
51661;DHT22;37741;49.748;8.490;2023-06-04T06:47:44;18.00;45.30
51661;DHT22;37741;49.748;8.490;2023-06-04T06:50:10;18.00;45.20
51661;DHT22;37741;49.748;8.490;2023-06-04T06:52:37;18.00;45.10
51661;DHT22;37741;49.748;8.490;2023-06-04T06:55:04;18.10;45.10
51661;DHT22;37741;49.748;8.490;2023-06-04T06:57:30;18.10;44.90
51661;DHT22;37741;49.748;8.490;2023-06-04T06:59:56;18.10;44.90
51661;DHT22;37741;49.748;8.490;2023-06-04T07:02:22;18.10;44.90
51661;DHT22;37741;49.748;8.490;2023-06-04T07:04:48;18.20;44.80
51661;DHT22;37741;49.748;8.490;2023-06-04T07:07:13;18.20;44.70
51661;DHT22;37741;49.748;8.490;2023-06-04T07:09:39;18.20;44.70
51661;DHT22;37741;49.748;8.490;2023-06-04T07:12:05;18.20;44.60
51661;DHT22;37741;49.748;8.490;2023-06-04T07:14:31;18.20;44.60
51661;DHT22;37741;49.748;8.490;2023-06-04T07:16:57;18.30;44.60
51661;DHT22;37741;49.748;8.490;2023-06-04T07:19:23;18.30;44.60
51661;DHT22;37741;49.748;8.490;2023-06-04T07:21:49;18.30;44.60
51661;DHT22;37741;49.748;8.490;2023-06-04T07:24:15;18.30;44.50
51661;DHT22;37741;49.748;8.490;2023-06-04T07:26:40;18.30;44.50
51661;DHT22;37741;49.748;8.490;2023-06-04T07:29:06;18.30;44.20
51661;DHT22;37741;49.748;8.490;2023-06-04T07:31:32;18.30;44.30
51661;DHT22;37741;49.748;8.490;2023-06-04T07:33:58;18.30;44.10
51661;DHT22;37741;49.748;8.490;2023-06-04T07:36:23;18.40;44.00
51661;DHT22;37741;49.748;8.490;2023-06-04T07:38:49;18.30;44.10
51661;DHT22;37741;49.748;8.490;2023-06-04T07:41:15;18.30;44.00
51661;DHT22;37741;49.748;8.490;2023-06-04T07:43:40;18.40;44.10
51661;DHT22;37741;49.748;8.490;2023-06-04T07:46:07;18.30;43.90
51661;DHT22;37741;49.748;8.490;2023-06-04T07:48:34;18.30;44.00
51661;DHT22;37741;49.748;8.490;2023-06-04T07:51:01;18.30;44.00
51661;DHT22;37741;49.748;8.490;2023-06-04T07:53:27;18.30;44.20
51661;DHT22;37741;49.748;8.490;2023-06-04T07:55:53;18.30;44.20
51661;DHT22;37741;49.748;8.490;2023-06-04T07:58:19;18.30;44.20
51661;DHT22;37741;49.748;8.490;2023-06-04T08:00:45;18.30;44.20
51661;DHT22;37741;49.748;8.490;2023-06-04T08:03:11;18.30;44.20
51661;DHT22;37741;49.748;8.490;2023-06-04T08:05:37;18.30;44.20
51661;DHT22;37741;49.748;8.490;2023-06-04T08:08:03;18.30;44.30
51661;DHT22;37741;49.748;8.490;2023-06-04T08:10:29;18.30;44.30
51661;DHT22;37741;49.748;8.490;2023-06-04T08:12:55;18.30;44.30
51661;DHT22;37741;49.748;8.490;2023-06-04T08:15:21;18.30;44.40
51661;DHT22;37741;49.748;8.490;2023-06-04T08:17:47;18.30;44.50
51661;DHT22;37741;49.748;8.490;2023-06-04T08:20:12;18.30;44.50
51661;DHT22;37741;49.748;8.490;2023-06-04T08:22:38;18.30;44.50
51661;DHT22;37741;49.748;8.490;2023-06-04T08:25:04;18.30;44.70
51661;DHT22;37741;49.748;8.490;2023-06-04T08:27:30;18.30;44.70
51661;DHT22;37741;49.748;8.490;2023-06-04T08:29:56;18.30;45.40
51661;DHT22;37741;49.748;8.490;2023-06-04T08:32:23;18.30;45.00
51661;DHT22;37741;49.748;8.490;2023-06-04T08:34:49;18.30;44.90
51661;DHT22;37741;49.748;8.490;2023-06-04T08:37:14;18.30;44.90
51661;DHT22;37741;49.748;8.490;2023-06-04T08:39:40;18.30;44.90
51661;DHT22;37741;49.748;8.490;2023-06-04T08:42:07;18.30;45.00
51661;DHT22;37741;49.748;8.490;2023-06-04T08:44:35;18.30;45.10
51661;DHT22;37741;49.748;8.490;2023-06-04T08:47:05;18.40;45.40
51661;DHT22;37741;49.748;8.490;2023-06-04T08:49:35;18.40;45.50
51661;DHT22;37741;49.748;8.490;2023-06-04T08:52:02;18.40;45.40
51661;DHT22;37741;49.748;8.490;2023-06-04T08:54:29;18.40;45.40
51661;DHT22;37741;49.748;8.490;2023-06-04T08:56:56;18.40;45.50
51661;DHT22;37741;49.748;8.490;2023-06-04T08:59:23;18.50;45.70
51661;DHT22;37741;49.748;8.490;2023-06-04T09:01:54;18.50;45.60
51661;DHT22;37741;49.748;8.490;2023-06-04T09:04:20;18.50;45.50
51661;DHT22;37741;49.748;8.490;2023-06-04T09:06:47;18.60;45.50
51661;DHT22;37741;49.748;8.490;2023-06-04T09:09:13;18.70;45.50
51661;DHT22;37741;49.748;8.490;2023-06-04T09:12:01;18.70;45.70
51661;DHT22;37741;49.748;8.490;2023-06-04T09:14:28;18.70;45.40
51661;DHT22;37741;49.748;8.490;2023-06-04T09:16:55;18.80;45.90
51661;DHT22;37741;49.748;8.490;2023-06-04T09:19:24;18.90;45.30
51661;DHT22;37741;49.748;8.490;2023-06-04T09:21:57;19.00;45.30
51661;DHT22;37741;49.748;8.490;2023-06-04T09:24:25;19.00;45.40
51661;DHT22;37741;49.748;8.490;2023-06-04T09:26:51;19.00;45.00
51661;DHT22;37741;49.748;8.490;2023-06-04T09:29:18;19.10;44.90
51661;DHT22;37741;49.748;8.490;2023-06-04T09:31:56;19.10;45.00
51661;DHT22;37741;49.748;8.490;2023-06-04T09:34:29;19.20;44.90
51661;DHT22;37741;49.748;8.490;2023-06-04T09:36:55;19.30;44.80
51661;DHT22;37741;49.748;8.490;2023-06-04T09:39:20;19.30;44.50
51661;DHT22;37741;49.748;8.490;2023-06-04T09:41:58;19.30;44.60
51661;DHT22;37741;49.748;8.490;2023-06-04T09:44:24;19.30;44.40
51661;DHT22;37741;49.748;8.490;2023-06-04T09:46:57;19.40;44.10
51661;DHT22;37741;49.748;8.490;2023-06-04T09:49:23;19.40;43.90
51661;DHT22;37741;49.748;8.490;2023-06-04T09:51:49;19.40;43.90
51661;DHT22;37741;49.748;8.490;2023-06-04T09:54:15;19.50;43.90
51661;DHT22;37741;49.748;8.490;2023-06-04T09:56:41;19.50;43.50
51661;DHT22;37741;49.748;8.490;2023-06-04T09:59:09;19.50;43.50
51661;DHT22;37741;49.748;8.490;2023-06-04T10:01:39;19.50;43.40
51661;DHT22;37741;49.748;8.490;2023-06-04T10:04:09;19.50;43.30
51661;DHT22;37741;49.748;8.490;2023-06-04T10:06:39;19.60;43.40
51661;DHT22;37741;49.748;8.490;2023-06-04T10:09:08;19.60;43.20
51661;DHT22;37741;49.748;8.490;2023-06-04T10:11:46;19.60;43.10
51661;DHT22;37741;49.748;8.490;2023-06-04T10:14:24;19.60;42.90
51661;DHT22;37741;49.748;8.490;2023-06-04T10:16:57;19.60;43.00
51661;DHT22;37741;49.748;8.490;2023-06-04T10:19:33;19.60;42.90
51661;DHT22;37741;49.748;8.490;2023-06-04T10:22:03;19.60;42.80
51661;DHT22;37741;49.748;8.490;2023-06-04T10:24:29;19.70;42.60
51661;DHT22;37741;49.748;8.490;2023-06-04T10:26:55;19.60;42.70
51661;DHT22;37741;49.748;8.490;2023-06-04T10:29:23;19.70;43.40
51661;DHT22;37741;49.748;8.490;2023-06-04T10:31:54;19.70;42.60
51661;DHT22;37741;49.748;8.490;2023-06-04T10:34:20;19.70;42.60
51661;DHT22;37741;49.748;8.490;2023-06-04T10:36:45;19.80;42.50
51661;DHT22;37741;49.748;8.490;2023-06-04T10:39:12;19.80;42.40
51661;DHT22;37741;49.748;8.490;2023-06-04T10:41:38;19.70;42.20
51661;DHT22;37741;49.748;8.490;2023-06-04T10:44:03;19.70;42.30
51661;DHT22;37741;49.748;8.490;2023-06-04T10:46:39;19.80;42.30
51661;DHT22;37741;49.748;8.490;2023-06-04T10:49:06;19.70;42.20
51661;DHT22;37741;49.748;8.490;2023-06-04T10:51:36;19.70;42.20
51661;DHT22;37741;49.748;8.490;2023-06-04T10:54:04;19.70;42.00
51661;DHT22;37741;49.748;8.490;2023-06-04T10:56:32;19.70;41.90
51661;DHT22;37741;49.748;8.490;2023-06-04T10:59:12;19.80;41.80
51661;DHT22;37741;49.748;8.490;2023-06-04T11:01:38;19.80;41.70
51661;DHT22;37741;49.748;8.490;2023-06-04T11:04:05;19.80;42.50
51661;DHT22;37741;49.748;8.490;2023-06-04T11:06:30;19.80;41.80
51661;DHT22;37741;49.748;8.490;2023-06-04T11:09:02;19.80;41.90
51661;DHT22;37741;49.748;8.490;2023-06-04T11:11:29;19.90;42.00
51661;DHT22;37741;49.748;8.490;2023-06-04T11:13:55;19.90;41.90
51661;DHT22;37741;49.748;8.490;2023-06-04T11:16:21;19.90;41.70
51661;DHT22;37741;49.748;8.490;2023-06-04T11:18:57;19.90;41.60
51661;DHT22;37741;49.748;8.490;2023-06-04T11:21:24;20.00;41.70
51661;DHT22;37741;49.748;8.490;2023-06-04T11:23:57;19.90;41.70
51661;DHT22;37741;49.748;8.490;2023-06-04T11:26:30;20.00;41.60
51661;DHT22;37741;49.748;8.490;2023-06-04T11:28:58;20.00;41.30
51661;DHT22;37741;49.748;8.490;2023-06-04T11:31:24;20.00;41.30
51661;DHT22;37741;49.748;8.490;2023-06-04T11:33:49;20.00;41.30
51661;DHT22;37741;49.748;8.490;2023-06-04T11:36:25;20.10;41.10
51661;DHT22;37741;49.748;8.490;2023-06-04T11:38:58;20.10;41.30
51661;DHT22;37741;49.748;8.490;2023-06-04T11:41:31;20.10;41.20
51661;DHT22;37741;49.748;8.490;2023-06-04T11:44:00;20.20;41.20
51661;DHT22;37741;49.748;8.490;2023-06-04T11:46:26;20.20;41.00
51661;DHT22;37741;49.748;8.490;2023-06-04T11:48:52;20.20;41.00
51661;DHT22;37741;49.748;8.490;2023-06-04T11:51:19;20.20;40.90
51661;DHT22;37741;49.748;8.490;2023-06-04T11:53:49;20.30;40.90
51661;DHT22;37741;49.748;8.490;2023-06-04T11:56:15;20.40;41.00
51661;DHT22;37741;49.748;8.490;2023-06-04T11:58:41;20.50;40.90
51661;DHT22;37741;49.748;8.490;2023-06-04T12:01:08;20.50;40.00
51661;DHT22;37741;49.748;8.490;2023-06-04T12:03:36;20.60;39.00
51661;DHT22;37741;49.748;8.490;2023-06-04T12:06:18;20.70;39.00
51661;DHT22;37741;49.748;8.490;2023-06-04T12:08:48;20.80;39.10
51661;DHT22;37741;49.748;8.490;2023-06-04T12:13:53;20.90;39.20
51661;DHT22;37741;49.748;8.490;2023-06-04T12:16:19;21.00;39.20
51661;DHT22;37741;49.748;8.490;2023-06-04T12:18:44;21.00;39.10
51661;DHT22;37741;49.748;8.490;2023-06-04T12:21:24;21.10;39.10
51661;DHT22;37741;49.748;8.490;2023-06-04T12:23:54;21.20;39.30
51661;DHT22;37741;49.748;8.490;2023-06-04T12:26:31;21.20;38.90
51661;DHT22;37741;49.748;8.490;2023-06-04T12:29:08;21.40;40.60
51661;DHT22;37741;49.748;8.490;2023-06-04T12:31:39;21.50;39.60
51661;DHT22;37741;49.748;8.490;2023-06-04T12:34:05;21.70;39.10
51661;DHT22;37741;49.748;8.490;2023-06-04T12:36:30;21.70;38.80
51661;DHT22;37741;49.748;8.490;2023-06-04T12:38:59;21.80;38.60
51661;DHT22;37741;49.748;8.490;2023-06-04T12:41:26;21.90;38.10
51661;DHT22;37741;49.748;8.490;2023-06-04T12:43:52;21.90;38.00
51661;DHT22;37741;49.748;8.490;2023-06-04T12:46:22;22.00;37.90
51661;DHT22;37741;49.748;8.490;2023-06-04T12:48:49;22.10;37.90
51661;DHT22;37741;49.748;8.490;2023-06-04T12:51:15;22.10;37.70
51661;DHT22;37741;49.748;8.490;2023-06-04T12:53:41;22.20;37.60
51661;DHT22;37741;49.748;8.490;2023-06-04T12:56:07;22.20;37.30
51661;DHT22;37741;49.748;8.490;2023-06-04T12:58:33;22.40;37.10
51661;DHT22;37741;49.748;8.490;2023-06-04T13:00:59;22.40;36.90
51661;DHT22;37741;49.748;8.490;2023-06-04T13:03:25;22.50;36.60
51661;DHT22;37741;49.748;8.490;2023-06-04T13:05:51;22.60;36.60
51661;DHT22;37741;49.748;8.490;2023-06-04T13:08:19;22.60;36.40
51661;DHT22;37741;49.748;8.490;2023-06-04T13:10:46;22.70;36.40
51661;DHT22;37741;49.748;8.490;2023-06-04T13:13:12;22.80;36.40
51661;DHT22;37741;49.748;8.490;2023-06-04T13:15:37;22.80;36.30
51661;DHT22;37741;49.748;8.490;2023-06-04T13:18:03;22.80;36.20
51661;DHT22;37741;49.748;8.490;2023-06-04T13:20:29;22.90;36.10
51661;DHT22;37741;49.748;8.490;2023-06-04T13:22:57;23.00;36.00
51661;DHT22;37741;49.748;8.490;2023-06-04T13:25:23;23.00;35.80
51661;DHT22;37741;49.748;8.490;2023-06-04T13:27:49;23.00;35.90
51661;DHT22;37741;49.748;8.490;2023-06-04T13:30:15;23.10;35.70
51661;DHT22;37741;49.748;8.490;2023-06-04T13:32:40;23.10;35.70
51661;DHT22;37741;49.748;8.490;2023-06-04T13:35:06;23.10;35.80
51661;DHT22;37741;49.748;8.490;2023-06-04T13:37:32;23.10;35.20
51661;DHT22;37741;49.748;8.490;2023-06-04T13:39:58;23.10;35.20
51661;DHT22;37741;49.748;8.490;2023-06-04T13:42:23;23.20;35.20
51661;DHT22;37741;49.748;8.490;2023-06-04T13:44:49;23.20;35.00
51661;DHT22;37741;49.748;8.490;2023-06-04T13:47:14;23.30;35.00
51661;DHT22;37741;49.748;8.490;2023-06-04T13:49:42;23.30;35.00
51661;DHT22;37741;49.748;8.490;2023-06-04T13:52:07;23.30;34.90
51661;DHT22;37741;49.748;8.490;2023-06-04T13:54:33;23.40;34.80
51661;DHT22;37741;49.748;8.490;2023-06-04T13:57:01;23.40;34.70
51661;DHT22;37741;49.748;8.490;2023-06-04T13:59:27;23.50;34.20
51661;DHT22;37741;49.748;8.490;2023-06-04T14:01:53;23.60;34.40
51661;DHT22;37741;49.748;8.490;2023-06-04T14:04:19;23.60;34.30
51661;DHT22;37741;49.748;8.490;2023-06-04T14:06:44;23.60;34.20
51661;DHT22;37741;49.748;8.490;2023-06-04T14:09:12;23.70;34.10
51661;DHT22;37741;49.748;8.490;2023-06-04T14:11:39;23.70;34.20
51661;DHT22;37741;49.748;8.490;2023-06-04T14:14:05;23.80;34.40
51661;DHT22;37741;49.748;8.490;2023-06-04T14:16:30;23.80;34.10
51661;DHT22;37741;49.748;8.490;2023-06-04T14:18:56;23.90;34.00
51661;DHT22;37741;49.748;8.490;2023-06-04T14:21:21;23.90;33.60
51661;DHT22;37741;49.748;8.490;2023-06-04T14:23:47;23.90;33.60
51661;DHT22;37741;49.748;8.490;2023-06-04T14:26:13;24.00;33.80
51661;DHT22;37741;49.748;8.490;2023-06-04T14:28:39;24.00;33.40
51661;DHT22;37741;49.748;8.490;2023-06-04T14:31:04;24.10;33.60
51661;DHT22;37741;49.748;8.490;2023-06-04T14:33:30;24.20;33.20
51661;DHT22;37741;49.748;8.490;2023-06-04T14:35:56;24.20;32.60
51661;DHT22;37741;49.748;8.490;2023-06-04T14:38:22;24.30;32.50
51661;DHT22;37741;49.748;8.490;2023-06-04T14:40:47;24.40;32.40
51661;DHT22;37741;49.748;8.490;2023-06-04T14:43:13;24.40;32.30
51661;DHT22;37741;49.748;8.490;2023-06-04T14:45:39;24.50;32.50
51661;DHT22;37741;49.748;8.490;2023-06-04T14:48:06;24.60;32.20
51661;DHT22;37741;49.748;8.490;2023-06-04T14:50:31;24.60;32.30
51661;DHT22;37741;49.748;8.490;2023-06-04T14:52:57;24.70;32.30
51661;DHT22;37741;49.748;8.490;2023-06-04T14:55:24;24.80;32.40
51661;DHT22;37741;49.748;8.490;2023-06-04T14:57:50;24.80;32.50
51661;DHT22;37741;49.748;8.490;2023-06-04T15:00:16;24.90;32.40
51661;DHT22;37741;49.748;8.490;2023-06-04T15:02:42;24.90;32.10
51661;DHT22;37741;49.748;8.490;2023-06-04T15:05:08;25.00;31.90
51661;DHT22;37741;49.748;8.490;2023-06-04T15:07:33;25.10;32.30
51661;DHT22;37741;49.748;8.490;2023-06-04T15:09:59;25.10;32.10
51661;DHT22;37741;49.748;8.490;2023-06-04T15:12:27;25.20;31.90
51661;DHT22;37741;49.748;8.490;2023-06-04T15:14:53;25.20;32.90
51661;DHT22;37741;49.748;8.490;2023-06-04T15:17:19;25.30;32.40
51661;DHT22;37741;49.748;8.490;2023-06-04T15:19:44;25.30;32.10
51661;DHT22;37741;49.748;8.490;2023-06-04T15:22:10;25.40;32.30
51661;DHT22;37741;49.748;8.490;2023-06-04T15:24:35;25.50;32.00
51661;DHT22;37741;49.748;8.490;2023-06-04T15:27:01;25.50;31.90
51661;DHT22;37741;49.748;8.490;2023-06-04T15:29:27;25.60;31.70
51661;DHT22;37741;49.748;8.490;2023-06-04T15:31:53;25.70;32.20
51661;DHT22;37741;49.748;8.490;2023-06-04T15:34:18;25.70;31.30
51661;DHT22;37741;49.748;8.490;2023-06-04T15:36:44;25.80;31.40
51661;DHT22;37741;49.748;8.490;2023-06-04T15:39:12;26.00;31.40